WetterOnline ( http://www.wetteronline.de )

Wetter aktuell Pforzheim

Aktuelles Wetter: Mühlacker (245m)

6-stündlich | Neueste Meldungen
Ortszeit Temperatur Wetter
Fr, 22.06. 8:00 11.1° C wolkenlos
Fr, 22.06. 2:00 9.5° C wolkenlos
Do, 21.06. 20:00 19.6° C wolkenlos
Do, 21.06. 14:00 25.6° C wolkig
Do, 21.06. 8:00 20.1° C wolkenlos
Do, 21.06. 2:00 15.6° C wolkenlos
Mi, 20.06. 20:00 28.3° C wolkenlos
Mi, 20.06. 14:00 28.5° C wolkenlos
Ortszeit Temperatur Wetter
Fr, 22.06. 11:00 13.6° C bewölkt
Fr, 22.06. 10:50 13.6° C bewölkt
Fr, 22.06. 10:40 13.7° C bewölkt
Fr, 22.06. 10:30 14.0° C bewölkt
Fr, 22.06. 10:20 14.0° C bewölkt
Fr, 22.06. 10:10 15.2° C leicht bewölkt
Fr, 22.06. 10:00 13.5° C leicht bewölkt
Fr, 22.06. 9:30 12.5° C bewölkt
Fr, 22.06. 9:00 12.5° C wolkenlos
Fr, 22.06. 8:30 11.9° C wolkenlos
Fr, 22.06. 8:00 11.1° C wolkenlos
Ortszeit Relative Feuchte Sichtweite
Fr, 22.06. 8:00 66% 6 km
Fr, 22.06. 2:00 70% 50 km
Do, 21.06. 20:00 37% 21 km
Do, 21.06. 14:00 44% 45 km
Do, 21.06. 8:00 83% 30 km
Do, 21.06. 2:00 90% 27 km
Mi, 20.06. 20:00 47% 60 km
Mi, 20.06. 14:00 42% 45 km
Ortszeit Relative Feuchte Sichtweite
Fr, 22.06. 11:00 52% 30 km
Fr, 22.06. 10:50 52% -
Fr, 22.06. 10:40 52% -
Fr, 22.06. 10:30 50% 55 km
Fr, 22.06. 10:20 50% -
Fr, 22.06. 10:10 49% -
Fr, 22.06. 10:00 51% 19 km
Fr, 22.06. 9:30 56% 30 km
Fr, 22.06. 9:00 57% 6 km
Fr, 22.06. 8:30 59% 4.4 km
Fr, 22.06. 8:00 66% 6 km
Ortszeit Niederschlagsmenge Niederschlagsart
Fr, 22.06. 8:00 0.0 l/m2 in 12 Std. -
Fr, 22.06. 2:00 0.0 l/m2 in 6 Std. -
Do, 21.06. 20:00 0.1 l/m2 in 12 Std. Regen
Do, 21.06. 14:00 0.0 l/m2 in 6 Std. -
Do, 21.06. 8:00 0.0 l/m2 in 12 Std. -
Do, 21.06. 2:00 0.0 l/m2 in 6 Std. -
Mi, 20.06. 20:00 0.0 l/m2 in 12 Std. -
Mi, 20.06. 14:00 0.0 l/m2 in 6 Std. -
Ortszeit Niederschlagsmenge Niederschlagsart
Fr, 22.06. 11:00 0.0 l/m2 in 1 Std. -
Fr, 22.06. 10:50 keine Meldung -
Fr, 22.06. 10:40 keine Meldung -
Fr, 22.06. 10:30 0.0 l/m2 in 1 Std. -
Fr, 22.06. 10:20 keine Meldung -
Fr, 22.06. 10:10 keine Meldung -
Fr, 22.06. 10:00 0.0 l/m2 in 1 Std. -
Fr, 22.06. 9:30 0.0 l/m2 in 1 Std. -
Fr, 22.06. 9:00 0.0 l/m2 in 1 Std. -
Fr, 22.06. 8:30 0.0 l/m2 in 1 Std. -
Fr, 22.06. 8:00 0.0 l/m2 in 1 Std. -
Ortszeit Stärke Spitze Richtung
km/h Bft. km/h Grad Sektor
Fr, 22.06. 8:00 14 3 22 280° W
Fr, 22.06. 2:00 6 1 37 280° W
Do, 21.06. 20:00 25 4 43 330° NW
Do, 21.06. 14:00 22 4 43 270° W
Do, 21.06. 8:00 4 1 4 90° O
Do, 21.06. 2:00 2 1 15 70° O
Mi, 20.06. 20:00 9 2 17 340° N
Mi, 20.06. 14:00 7 2 14 80° O
Ortszeit Stärke Spitze Richtung
km/h Bft. km/h Grad Sektor
Fr, 22.06. 11:00 14 3 29 300° NW
Fr, 22.06. 10:50 14 3 - 300° NW
Fr, 22.06. 10:40 17 3 - 300° NW
Fr, 22.06. 10:30 11 2 30 290° W
Fr, 22.06. 10:20 11 2 - 290° W
Fr, 22.06. 10:10 11 2 - 290° W
Fr, 22.06. 10:00 14 3 29 300° NW
Fr, 22.06. 9:30 18 3 29 280° W
Fr, 22.06. 9:00 17 3 28 290° W
Fr, 22.06. 8:30 17 3 26 300° NW
Fr, 22.06. 8:00 14 3 22 280° W
Ortszeit Untergrenze Bedeckung Gattung
total tief tief mittel hoch
Fr, 22.06. 8:00 - 0/8 0/8 - - -
Fr, 22.06. 2:00 - 0/8 0/8 - - -
Do, 21.06. 20:00 - 0/8 0/8 - - -
Do, 21.06. 14:00 1500 m 5/8 5/8 - - -
Do, 21.06. 8:00 - 0/8 0/8 - - -
Do, 21.06. 2:00 - 0/8 0/8 - - -
Mi, 20.06. 20:00 - 0/8 0/8 - - -
Mi, 20.06. 14:00 - 0/8 0/8 - - -
Ortszeit Bedeckungsgrad in Achtel und Wolkenuntergrenze
Fr, 22.06. 11:00 5(1230m) 7(1470m)
Fr, 22.06. 10:50 5(1230m) 7(1470m)
Fr, 22.06. 10:40 6(1230m) 7(1500m)
Fr, 22.06. 10:30 7(1230m)
Fr, 22.06. 10:20 7(1230m)
Fr, 22.06. 10:10 2(1140m) 4(1380m)
Fr, 22.06. 10:00 3(1050m) 4(1320m)
Fr, 22.06. 9:30 5(1020m) 5(1290m) 9
Fr, 22.06. 9:00 keine Wolken
Fr, 22.06. 8:30 keine Wolken
Fr, 22.06. 8:00 keine Wolken
Ortszeit Luftdruck NN (hPa) Tendenz (hPa in 3 Std.)
Fr, 22.06. 8:00 1025 + 0,2
Fr, 22.06. 2:00 1025 + 1,8
Do, 21.06. 20:00 1018 + 1,2
Do, 21.06. 14:00 1015 - 0,2
Do, 21.06. 8:00 1016 0,0
Do, 21.06. 2:00 1017 - 0,9
Mi, 20.06. 20:00 1017 - 1,0
Mi, 20.06. 14:00 1019 - 1,4
Ortszeit Luftdruck NN (hPa) Tendenz (hPa in 3 Std.)
Fr, 22.06. 11:00 1026 + 0,6
Fr, 22.06. 10:50 1026 keine Meldung
Fr, 22.06. 10:40 1026 keine Meldung
Fr, 22.06. 10:30 1025 + 0,2
Fr, 22.06. 10:20 1025 keine Meldung
Fr, 22.06. 10:10 1025 keine Meldung
Fr, 22.06. 10:00 1025 + 0,1
Fr, 22.06. 9:30 1026 + 0,3
Fr, 22.06. 9:00 1025 + 0,3
Fr, 22.06. 8:30 1025 + 0,2
Fr, 22.06. 8:00 1025 + 0,2
Ortszeit Schneehöhe (cm)
Fr, 22.06. 8:00 -
Fr, 22.06. 2:00 -
Do, 21.06. 20:00 -
Do, 21.06. 14:00 -
Do, 21.06. 8:00 -
Do, 21.06. 2:00 -
Mi, 20.06. 20:00 -
Mi, 20.06. 14:00 -
Ortszeit Schneehöhe (cm)
Fr, 22.06. 11:00 -
Fr, 22.06. 10:50 -
Fr, 22.06. 10:40 -
Fr, 22.06. 10:30 -
Fr, 22.06. 10:20 -
Fr, 22.06. 10:10 -
Fr, 22.06. 10:00 -
Fr, 22.06. 9:30 -
Fr, 22.06. 9:00 -
Fr, 22.06. 8:30 -
Fr, 22.06. 8:00 -
Link zu dieser Seite / Seite empfehlen

Das Wetter in ...